sensor_id;sensor_type;location;lat;lon;timestamp;P1;durP1;ratioP1;P2;durP2;ratioP2
4837;SDS011;2433;48.768;9.154;2023-08-06T00:01:51;3.30;;;2.40;;
4837;SDS011;2433;48.768;9.154;2023-08-06T00:04:16;2.10;;;2.00;;
4837;SDS011;2433;48.768;9.154;2023-08-06T00:06:43;2.20;;;2.00;;
4837;SDS011;2433;48.768;9.154;2023-08-06T00:09:09;4.10;;;2.77;;
4837;SDS011;2433;48.768;9.154;2023-08-06T00:11:35;2.10;;;1.90;;
4837;SDS011;2433;48.768;9.154;2023-08-06T00:14:00;4.03;;;2.97;;
4837;SDS011;2433;48.768;9.154;2023-08-06T00:16:26;3.03;;;2.40;;
4837;SDS011;2433;48.768;9.154;2023-08-06T00:18:51;2.50;;;2.30;;
4837;SDS011;2433;48.768;9.154;2023-08-06T00:21:17;3.30;;;3.10;;
4837;SDS011;2433;48.768;9.154;2023-08-06T00:23:43;3.20;;;2.63;;
4837;SDS011;2433;48.768;9.154;2023-08-06T00:26:08;4.57;;;2.53;;
4837;SDS011;2433;48.768;9.154;2023-08-06T00:28:34;2.00;;;1.90;;
4837;SDS011;2433;48.768;9.154;2023-08-06T00:31:00;2.17;;;1.90;;
4837;SDS011;2433;48.768;9.154;2023-08-06T00:33:26;1.60;;;1.50;;
4837;SDS011;2433;48.768;9.154;2023-08-06T00:35:52;1.93;;;1.73;;
4837;SDS011;2433;48.768;9.154;2023-08-06T00:38:18;2.10;;;1.87;;
4837;SDS011;2433;48.768;9.154;2023-08-06T00:40:43;1.60;;;1.50;;
4837;SDS011;2433;48.768;9.154;2023-08-06T00:43:09;3.87;;;1.50;;
4837;SDS011;2433;48.768;9.154;2023-08-06T00:45:36;2.00;;;1.73;;
4837;SDS011;2433;48.768;9.154;2023-08-06T00:48:03;2.60;;;1.60;;
4837;SDS011;2433;48.768;9.154;2023-08-06T00:50:30;2.20;;;1.80;;
4837;SDS011;2433;48.768;9.154;2023-08-06T00:52:56;2.47;;;2.00;;
4837;SDS011;2433;48.768;9.154;2023-08-06T00:55:24;2.30;;;2.07;;
4837;SDS011;2433;48.768;9.154;2023-08-06T00:57:51;2.13;;;1.77;;
4837;SDS011;2433;48.768;9.154;2023-08-06T01:00:19;1.90;;;1.33;;
4837;SDS011;2433;48.768;9.154;2023-08-06T01:02:45;1.80;;;1.50;;
4837;SDS011;2433;48.768;9.154;2023-08-06T01:05:11;2.00;;;1.57;;
4837;SDS011;2433;48.768;9.154;2023-08-06T01:10:45;1.67;;;1.57;;
4837;SDS011;2433;48.768;9.154;2023-08-06T01:13:54;2.63;;;2.00;;
4837;SDS011;2433;48.768;9.154;2023-08-06T01:16:11;2.43;;;2.10;;
4837;SDS011;2433;48.768;9.154;2023-08-06T01:18:36;3.70;;;2.07;;
4837;SDS011;2433;48.768;9.154;2023-08-06T01:21:06;2.23;;;2.03;;
4837;SDS011;2433;48.768;9.154;2023-08-06T01:23:34;1.93;;;1.60;;
4837;SDS011;2433;48.768;9.154;2023-08-06T01:26:48;2.80;;;1.97;;
4837;SDS011;2433;48.768;9.154;2023-08-06T01:29:06;2.17;;;1.97;;
4837;SDS011;2433;48.768;9.154;2023-08-06T01:31:36;2.03;;;1.50;;
4837;SDS011;2433;48.768;9.154;2023-08-06T01:34:04;2.10;;;1.80;;
4837;SDS011;2433;48.768;9.154;2023-08-06T01:36:33;5.17;;;1.70;;
4837;SDS011;2433;48.768;9.154;2023-08-06T01:38:59;2.20;;;2.00;;
4837;SDS011;2433;48.768;9.154;2023-08-06T01:41:25;2.03;;;1.70;;
4837;SDS011;2433;48.768;9.154;2023-08-06T01:43:50;4.03;;;1.80;;
4837;SDS011;2433;48.768;9.154;2023-08-06T01:46:16;2.10;;;1.90;;
4837;SDS011;2433;48.768;9.154;2023-08-06T01:48:43;2.17;;;1.67;;
4837;SDS011;2433;48.768;9.154;2023-08-06T01:51:09;2.23;;;2.00;;
4837;SDS011;2433;48.768;9.154;2023-08-06T01:53:35;1.80;;;1.67;;
4837;SDS011;2433;48.768;9.154;2023-08-06T01:56:00;3.13;;;1.73;;
4837;SDS011;2433;48.768;9.154;2023-08-06T01:58:26;2.13;;;1.50;;
4837;SDS011;2433;48.768;9.154;2023-08-06T02:00:52;2.10;;;1.90;;
4837;SDS011;2433;48.768;9.154;2023-08-06T02:03:18;3.17;;;1.57;;
4837;SDS011;2433;48.768;9.154;2023-08-06T02:05:44;2.30;;;1.60;;
4837;SDS011;2433;48.768;9.154;2023-08-06T02:08:11;1.93;;;1.33;;
4837;SDS011;2433;48.768;9.154;2023-08-06T02:10:36;1.70;;;1.60;;
4837;SDS011;2433;48.768;9.154;2023-08-06T02:13:02;1.50;;;1.40;;
4837;SDS011;2433;48.768;9.154;2023-08-06T02:15:28;1.93;;;1.73;;
4837;SDS011;2433;48.768;9.154;2023-08-06T02:17:54;1.93;;;1.67;;
4837;SDS011;2433;48.768;9.154;2023-08-06T02:20:21;2.50;;;2.00;;
4837;SDS011;2433;48.768;9.154;2023-08-06T02:22:47;2.00;;;1.83;;
4837;SDS011;2433;48.768;9.154;2023-08-06T02:25:12;2.80;;;1.93;;
4837;SDS011;2433;48.768;9.154;2023-08-06T02:27:38;2.43;;;1.80;;
4837;SDS011;2433;48.768;9.154;2023-08-06T02:30:05;3.37;;;2.03;;
4837;SDS011;2433;48.768;9.154;2023-08-06T02:32:31;2.70;;;2.00;;
4837;SDS011;2433;48.768;9.154;2023-08-06T02:35:03;1.30;;;1.20;;
4837;SDS011;2433;48.768;9.154;2023-08-06T02:37:29;2.20;;;1.60;;
4837;SDS011;2433;48.768;9.154;2023-08-06T02:39:54;1.53;;;1.43;;
4837;SDS011;2433;48.768;9.154;2023-08-06T02:42:20;2.10;;;1.87;;
4837;SDS011;2433;48.768;9.154;2023-08-06T02:44:45;3.87;;;1.90;;
4837;SDS011;2433;48.768;9.154;2023-08-06T02:47:11;1.70;;;1.60;;
4837;SDS011;2433;48.768;9.154;2023-08-06T02:49:37;2.43;;;1.83;;
4837;SDS011;2433;48.768;9.154;2023-08-06T02:52:03;2.43;;;1.60;;
4837;SDS011;2433;48.768;9.154;2023-08-06T02:54:29;2.00;;;1.70;;
4837;SDS011;2433;48.768;9.154;2023-08-06T02:56:55;2.00;;;1.80;;
4837;SDS011;2433;48.768;9.154;2023-08-06T02:59:28;1.67;;;1.57;;
4837;SDS011;2433;48.768;9.154;2023-08-06T03:02:15;3.37;;;1.90;;
4837;SDS011;2433;48.768;9.154;2023-08-06T03:04:54;1.47;;;1.37;;
4837;SDS011;2433;48.768;9.154;2023-08-06T03:07:22;1.87;;;1.73;;
4837;SDS011;2433;48.768;9.154;2023-08-06T03:09:53;2.10;;;1.80;;
4837;SDS011;2433;48.768;9.154;2023-08-06T03:12:20;3.23;;;1.57;;
4837;SDS011;2433;48.768;9.154;2023-08-06T03:14:46;2.23;;;1.80;;
4837;SDS011;2433;48.768;9.154;2023-08-06T03:17:12;1.67;;;1.53;;
4837;SDS011;2433;48.768;9.154;2023-08-06T03:19:38;2.03;;;1.40;;
4837;SDS011;2433;48.768;9.154;2023-08-06T03:22:04;1.30;;;1.10;;
4837;SDS011;2433;48.768;9.154;2023-08-06T03:24:32;1.27;;;1.17;;
4837;SDS011;2433;48.768;9.154;2023-08-06T03:26:58;1.77;;;1.37;;
4837;SDS011;2433;48.768;9.154;2023-08-06T03:29:24;2.37;;;1.43;;
4837;SDS011;2433;48.768;9.154;2023-08-06T03:31:51;1.50;;;1.40;;
4837;SDS011;2433;48.768;9.154;2023-08-06T03:34:17;1.83;;;1.70;;
4837;SDS011;2433;48.768;9.154;2023-08-06T03:36:44;3.40;;;1.37;;
4837;SDS011;2433;48.768;9.154;2023-08-06T03:39:09;1.57;;;1.47;;
4837;SDS011;2433;48.768;9.154;2023-08-06T03:41:38;1.60;;;0.97;;
4837;SDS011;2433;48.768;9.154;2023-08-06T03:44:04;1.53;;;1.40;;
4837;SDS011;2433;48.768;9.154;2023-08-06T03:46:29;3.03;;;1.40;;
4837;SDS011;2433;48.768;9.154;2023-08-06T03:49:00;2.63;;;1.43;;
4837;SDS011;2433;48.768;9.154;2023-08-06T03:51:26;2.20;;;1.60;;
4837;SDS011;2433;48.768;9.154;2023-08-06T03:53:52;1.60;;;1.10;;
4837;SDS011;2433;48.768;9.154;2023-08-06T03:56:18;1.10;;;0.87;;
4837;SDS011;2433;48.768;9.154;2023-08-06T03:58:44;1.63;;;1.27;;
4837;SDS011;2433;48.768;9.154;2023-08-06T04:01:09;1.20;;;1.10;;
4837;SDS011;2433;48.768;9.154;2023-08-06T04:03:54;1.63;;;1.10;;
4837;SDS011;2433;48.768;9.154;2023-08-06T04:06:19;1.73;;;0.90;;
4837;SDS011;2433;48.768;9.154;2023-08-06T04:08:45;1.47;;;1.37;;
4837;SDS011;2433;48.768;9.154;2023-08-06T04:11:11;1.97;;;1.40;;
4837;SDS011;2433;48.768;9.154;2023-08-06T04:13:45;1.80;;;1.50;;
4837;SDS011;2433;48.768;9.154;2023-08-06T04:16:10;1.60;;;1.10;;
4837;SDS011;2433;48.768;9.154;2023-08-06T04:18:36;1.80;;;1.60;;
4837;SDS011;2433;48.768;9.154;2023-08-06T04:21:02;1.70;;;1.60;;
4837;SDS011;2433;48.768;9.154;2023-08-06T04:23:29;1.83;;;1.00;;
4837;SDS011;2433;48.768;9.154;2023-08-06T04:25:58;1.70;;;1.40;;
4837;SDS011;2433;48.768;9.154;2023-08-06T04:28:27;2.50;;;1.50;;
4837;SDS011;2433;48.768;9.154;2023-08-06T04:30:54;3.20;;;1.60;;
4837;SDS011;2433;48.768;9.154;2023-08-06T04:33:20;1.73;;;0.93;;
4837;SDS011;2433;48.768;9.154;2023-08-06T04:35:47;1.50;;;1.10;;
4837;SDS011;2433;48.768;9.154;2023-08-06T04:38:12;1.63;;;1.20;;
4837;SDS011;2433;48.768;9.154;2023-08-06T04:40:38;1.23;;;1.03;;
4837;SDS011;2433;48.768;9.154;2023-08-06T04:43:04;1.53;;;1.30;;
4837;SDS011;2433;48.768;9.154;2023-08-06T04:45:32;1.20;;;0.97;;
4837;SDS011;2433;48.768;9.154;2023-08-06T04:47:58;1.67;;;0.90;;
4837;SDS011;2433;48.768;9.154;2023-08-06T04:50:23;1.10;;;0.90;;
4837;SDS011;2433;48.768;9.154;2023-08-06T04:52:49;1.20;;;0.97;;
4837;SDS011;2433;48.768;9.154;2023-08-06T04:55:14;2.03;;;1.10;;
4837;SDS011;2433;48.768;9.154;2023-08-06T04:57:40;2.93;;;1.20;;
4837;SDS011;2433;48.768;9.154;2023-08-06T05:00:06;3.20;;;1.20;;
4837;SDS011;2433;48.768;9.154;2023-08-06T05:02:32;1.07;;;0.73;;
4837;SDS011;2433;48.768;9.154;2023-08-06T05:04:59;2.60;;;0.87;;
4837;SDS011;2433;48.768;9.154;2023-08-06T05:07:26;2.53;;;1.20;;
4837;SDS011;2433;48.768;9.154;2023-08-06T05:09:52;1.37;;;1.00;;
4837;SDS011;2433;48.768;9.154;2023-08-06T05:12:17;1.47;;;1.03;;
4837;SDS011;2433;48.768;9.154;2023-08-06T05:14:43;1.17;;;0.97;;
4837;SDS011;2433;48.768;9.154;2023-08-06T05:17:08;1.63;;;0.90;;
4837;SDS011;2433;48.768;9.154;2023-08-06T05:19:34;1.57;;;0.70;;
4837;SDS011;2433;48.768;9.154;2023-08-06T05:21:59;2.70;;;0.93;;
4837;SDS011;2433;48.768;9.154;2023-08-06T05:24:26;0.80;;;0.67;;
4837;SDS011;2433;48.768;9.154;2023-08-06T05:26:52;1.13;;;0.63;;
4837;SDS011;2433;48.768;9.154;2023-08-06T05:29:18;2.70;;;0.93;;
4837;SDS011;2433;48.768;9.154;2023-08-06T05:31:43;1.03;;;0.93;;
4837;SDS011;2433;48.768;9.154;2023-08-06T05:34:09;1.30;;;0.50;;
4837;SDS011;2433;48.768;9.154;2023-08-06T05:36:35;0.70;;;0.50;;
4837;SDS011;2433;48.768;9.154;2023-08-06T05:39:00;0.83;;;0.80;;
4837;SDS011;2433;48.768;9.154;2023-08-06T05:41:26;1.73;;;1.10;;
4837;SDS011;2433;48.768;9.154;2023-08-06T05:43:51;1.13;;;0.87;;
4837;SDS011;2433;48.768;9.154;2023-08-06T05:46:17;0.73;;;0.60;;
4837;SDS011;2433;48.768;9.154;2023-08-06T05:48:43;0.80;;;0.80;;
4837;SDS011;2433;48.768;9.154;2023-08-06T05:51:08;0.77;;;0.50;;
4837;SDS011;2433;48.768;9.154;2023-08-06T05:53:34;0.57;;;0.43;;
4837;SDS011;2433;48.768;9.154;2023-08-06T05:56:01;2.23;;;0.80;;
4837;SDS011;2433;48.768;9.154;2023-08-06T05:58:28;1.50;;;0.67;;
4837;SDS011;2433;48.768;9.154;2023-08-06T06:00:56;0.73;;;0.60;;
4837;SDS011;2433;48.768;9.154;2023-08-06T06:03:23;1.13;;;0.30;;
4837;SDS011;2433;48.768;9.154;2023-08-06T06:05:48;2.30;;;0.40;;
4837;SDS011;2433;48.768;9.154;2023-08-06T06:08:14;2.97;;;0.60;;
4837;SDS011;2433;48.768;9.154;2023-08-06T06:10:41;0.70;;;0.40;;
4837;SDS011;2433;48.768;9.154;2023-08-06T06:13:06;1.13;;;0.77;;
4837;SDS011;2433;48.768;9.154;2023-08-06T06:15:32;1.67;;;0.40;;
4837;SDS011;2433;48.768;9.154;2023-08-06T06:17:58;0.40;;;0.30;;
4837;SDS011;2433;48.768;9.154;2023-08-06T06:20:27;0.93;;;0.50;;
4837;SDS011;2433;48.768;9.154;2023-08-06T06:22:52;1.17;;;0.40;;
4837;SDS011;2433;48.768;9.154;2023-08-06T06:25:22;1.20;;;0.70;;
4837;SDS011;2433;48.768;9.154;2023-08-06T06:27:48;3.30;;;0.47;;
4837;SDS011;2433;48.768;9.154;2023-08-06T06:30:14;0.70;;;0.30;;
4837;SDS011;2433;48.768;9.154;2023-08-06T06:32:39;0.60;;;0.43;;
4837;SDS011;2433;48.768;9.154;2023-08-06T06:35:06;0.50;;;0.40;;
4837;SDS011;2433;48.768;9.154;2023-08-06T06:37:32;0.50;;;0.37;;
4837;SDS011;2433;48.768;9.154;2023-08-06T06:39:58;0.57;;;0.40;;
4837;SDS011;2433;48.768;9.154;2023-08-06T06:42:23;2.20;;;0.30;;
4837;SDS011;2433;48.768;9.154;2023-08-06T06:44:57;0.70;;;0.20;;
4837;SDS011;2433;48.768;9.154;2023-08-06T06:47:23;0.70;;;0.40;;
4837;SDS011;2433;48.768;9.154;2023-08-06T06:49:49;0.83;;;0.60;;
4837;SDS011;2433;48.768;9.154;2023-08-06T06:52:15;0.50;;;0.30;;
4837;SDS011;2433;48.768;9.154;2023-08-06T06:54:41;1.23;;;0.37;;
4837;SDS011;2433;48.768;9.154;2023-08-06T06:57:07;0.90;;;0.50;;
4837;SDS011;2433;48.768;9.154;2023-08-06T06:59:32;0.43;;;0.30;;
4837;SDS011;2433;48.768;9.154;2023-08-06T07:01:58;1.43;;;0.30;;
4837;SDS011;2433;48.768;9.154;2023-08-06T07:04:23;0.80;;;0.50;;
4837;SDS011;2433;48.768;9.154;2023-08-06T07:06:49;0.50;;;0.30;;
4837;SDS011;2433;48.768;9.154;2023-08-06T07:09:15;0.50;;;0.40;;
4837;SDS011;2433;48.768;9.154;2023-08-06T07:11:40;0.77;;;0.30;;
4837;SDS011;2433;48.768;9.154;2023-08-06T07:14:09;0.50;;;0.40;;
4837;SDS011;2433;48.768;9.154;2023-08-06T07:16:34;1.90;;;0.40;;
4837;SDS011;2433;48.768;9.154;2023-08-06T07:19:00;1.17;;;0.40;;
4837;SDS011;2433;48.768;9.154;2023-08-06T07:21:26;0.90;;;0.63;;
4837;SDS011;2433;48.768;9.154;2023-08-06T07:23:51;0.50;;;0.27;;
4837;SDS011;2433;48.768;9.154;2023-08-06T07:26:17;0.40;;;0.30;;
4837;SDS011;2433;48.768;9.154;2023-08-06T07:28:43;0.50;;;0.40;;
4837;SDS011;2433;48.768;9.154;2023-08-06T07:31:09;1.70;;;0.40;;
4837;SDS011;2433;48.768;9.154;2023-08-06T07:33:35;0.70;;;0.43;;
4837;SDS011;2433;48.768;9.154;2023-08-06T07:36:07;0.77;;;0.50;;
4837;SDS011;2433;48.768;9.154;2023-08-06T07:38:34;0.57;;;0.30;;
4837;SDS011;2433;48.768;9.154;2023-08-06T07:41:01;0.87;;;0.40;;
4837;SDS011;2433;48.768;9.154;2023-08-06T07:43:27;0.57;;;0.40;;
4837;SDS011;2433;48.768;9.154;2023-08-06T07:45:53;1.00;;;0.30;;
4837;SDS011;2433;48.768;9.154;2023-08-06T07:48:18;0.47;;;0.23;;
4837;SDS011;2433;48.768;9.154;2023-08-06T07:50:44;1.40;;;0.50;;
4837;SDS011;2433;48.768;9.154;2023-08-06T07:53:15;0.50;;;0.30;;
4837;SDS011;2433;48.768;9.154;2023-08-06T07:55:41;0.40;;;0.20;;
4837;SDS011;2433;48.768;9.154;2023-08-06T07:58:07;0.57;;;0.20;;
4837;SDS011;2433;48.768;9.154;2023-08-06T08:00:33;0.40;;;0.20;;
4837;SDS011;2433;48.768;9.154;2023-08-06T08:02:58;0.40;;;0.20;;
4837;SDS011;2433;48.768;9.154;2023-08-06T08:05:24;0.40;;;0.20;;
4837;SDS011;2433;48.768;9.154;2023-08-06T08:07:49;0.57;;;0.47;;
4837;SDS011;2433;48.768;9.154;2023-08-06T08:10:15;0.43;;;0.20;;
4837;SDS011;2433;48.768;9.154;2023-08-06T08:12:41;0.67;;;0.20;;
4837;SDS011;2433;48.768;9.154;2023-08-06T08:15:08;0.50;;;0.40;;
4837;SDS011;2433;48.768;9.154;2023-08-06T08:17:34;0.40;;;0.20;;
4837;SDS011;2433;48.768;9.154;2023-08-06T08:20:00;0.30;;;0.10;;
4837;SDS011;2433;48.768;9.154;2023-08-06T08:22:25;0.40;;;0.20;;
4837;SDS011;2433;48.768;9.154;2023-08-06T08:24:51;0.83;;;0.20;;
4837;SDS011;2433;48.768;9.154;2023-08-06T08:27:17;0.40;;;0.20;;
4837;SDS011;2433;48.768;9.154;2023-08-06T08:29:42;0.40;;;0.20;;
4837;SDS011;2433;48.768;9.154;2023-08-06T08:32:08;0.40;;;0.20;;
4837;SDS011;2433;48.768;9.154;2023-08-06T08:34:33;0.40;;;0.20;;
4837;SDS011;2433;48.768;9.154;2023-08-06T08:36:59;0.40;;;0.20;;
4837;SDS011;2433;48.768;9.154;2023-08-06T08:39:24;0.30;;;0.20;;
4837;SDS011;2433;48.768;9.154;2023-08-06T08:41:50;0.40;;;0.20;;
4837;SDS011;2433;48.768;9.154;2023-08-06T08:44:15;0.67;;;0.20;;
4837;SDS011;2433;48.768;9.154;2023-08-06T08:46:41;0.40;;;0.20;;
4837;SDS011;2433;48.768;9.154;2023-08-06T08:49:08;0.30;;;0.10;;
4837;SDS011;2433;48.768;9.154;2023-08-06T08:51:34;0.70;;;0.43;;
4837;SDS011;2433;48.768;9.154;2023-08-06T08:54:03;0.40;;;0.20;;
4837;SDS011;2433;48.768;9.154;2023-08-06T08:56:29;0.40;;;0.20;;
4837;SDS011;2433;48.768;9.154;2023-08-06T08:58:56;0.40;;;0.20;;
4837;SDS011;2433;48.768;9.154;2023-08-06T09:01:21;0.30;;;0.20;;
4837;SDS011;2433;48.768;9.154;2023-08-06T09:03:47;0.40;;;0.20;;
4837;SDS011;2433;48.768;9.154;2023-08-06T09:06:13;0.70;;;0.30;;
4837;SDS011;2433;48.768;9.154;2023-08-06T09:08:41;0.40;;;0.40;;
4837;SDS011;2433;48.768;9.154;2023-08-06T09:11:08;0.50;;;0.20;;
4837;SDS011;2433;48.768;9.154;2023-08-06T09:13:36;0.40;;;0.20;;
4837;SDS011;2433;48.768;9.154;2023-08-06T09:16:05;0.40;;;0.20;;
4837;SDS011;2433;48.768;9.154;2023-08-06T09:18:30;0.33;;;0.20;;
4837;SDS011;2433;48.768;9.154;2023-08-06T09:20:57;0.40;;;0.20;;
4837;SDS011;2433;48.768;9.154;2023-08-06T09:23:29;0.43;;;0.20;;
4837;SDS011;2433;48.768;9.154;2023-08-06T09:25:56;0.40;;;0.20;;
4837;SDS011;2433;48.768;9.154;2023-08-06T09:28:22;0.90;;;0.20;;
4837;SDS011;2433;48.768;9.154;2023-08-06T09:30:49;0.40;;;0.20;;
4837;SDS011;2433;48.768;9.154;2023-08-06T09:33:18;0.60;;;0.20;;
4837;SDS011;2433;48.768;9.154;2023-08-06T09:35:45;0.40;;;0.20;;
4837;SDS011;2433;48.768;9.154;2023-08-06T09:38:12;0.47;;;0.20;;
4837;SDS011;2433;48.768;9.154;2023-08-06T09:40:37;0.40;;;0.20;;
4837;SDS011;2433;48.768;9.154;2023-08-06T09:43:04;0.40;;;0.20;;
4837;SDS011;2433;48.768;9.154;2023-08-06T09:45:34;0.40;;;0.20;;
4837;SDS011;2433;48.768;9.154;2023-08-06T09:48:03;0.40;;;0.20;;
4837;SDS011;2433;48.768;9.154;2023-08-06T09:50:30;0.40;;;0.20;;
4837;SDS011;2433;48.768;9.154;2023-08-06T09:52:57;0.50;;;0.30;;
4837;SDS011;2433;48.768;9.154;2023-08-06T09:55:24;0.30;;;0.20;;
4837;SDS011;2433;48.768;9.154;2023-08-06T09:57:53;2.33;;;0.20;;
4837;SDS011;2433;48.768;9.154;2023-08-06T10:00:20;0.40;;;0.20;;
4837;SDS011;2433;48.768;9.154;2023-08-06T10:02:46;0.40;;;0.20;;
4837;SDS011;2433;48.768;9.154;2023-08-06T10:05:12;0.40;;;0.20;;
4837;SDS011;2433;48.768;9.154;2023-08-06T10:07:38;0.40;;;0.20;;
4837;SDS011;2433;48.768;9.154;2023-08-06T10:10:05;0.50;;;0.20;;
4837;SDS011;2433;48.768;9.154;2023-08-06T10:12:37;0.40;;;0.20;;
4837;SDS011;2433;48.768;9.154;2023-08-06T10:15:09;0.40;;;0.20;;
4837;SDS011;2433;48.768;9.154;2023-08-06T10:17:36;1.50;;;0.20;;
4837;SDS011;2433;48.768;9.154;2023-08-06T10:20:07;0.77;;;0.30;;
4837;SDS011;2433;48.768;9.154;2023-08-06T10:22:34;0.40;;;0.20;;
4837;SDS011;2433;48.768;9.154;2023-08-06T10:25:00;0.60;;;0.23;;
4837;SDS011;2433;48.768;9.154;2023-08-06T10:27:35;0.40;;;0.20;;
4837;SDS011;2433;48.768;9.154;2023-08-06T10:32:53;0.73;;;0.20;;
4837;SDS011;2433;48.768;9.154;2023-08-06T10:38:07;0.40;;;0.20;;
4837;SDS011;2433;48.768;9.154;2023-08-06T10:40:35;0.40;;;0.20;;
4837;SDS011;2433;48.768;9.154;2023-08-06T10:43:02;0.30;;;0.20;;
4837;SDS011;2433;48.768;9.154;2023-08-06T10:45:28;0.30;;;0.20;;
4837;SDS011;2433;48.768;9.154;2023-08-06T10:47:55;0.30;;;0.10;;
4837;SDS011;2433;48.768;9.154;2023-08-06T10:50:22;0.30;;;0.17;;
4837;SDS011;2433;48.768;9.154;2023-08-06T10:52:48;0.40;;;0.23;;
4837;SDS011;2433;48.768;9.154;2023-08-06T10:55:25;0.47;;;0.20;;
4837;SDS011;2433;48.768;9.154;2023-08-06T10:57:53;0.40;;;0.20;;
4837;SDS011;2433;48.768;9.154;2023-08-06T11:00:21;0.40;;;0.20;;
4837;SDS011;2433;48.768;9.154;2023-08-06T11:02:48;0.40;;;0.10;;
4837;SDS011;2433;48.768;9.154;2023-08-06T11:05:14;0.30;;;0.20;;
4837;SDS011;2433;48.768;9.154;2023-08-06T11:07:41;0.40;;;0.20;;
4837;SDS011;2433;48.768;9.154;2023-08-06T11:10:09;1.43;;;0.20;;
4837;SDS011;2433;48.768;9.154;2023-08-06T11:12:37;0.60;;;0.30;;
4837;SDS011;2433;48.768;9.154;2023-08-06T11:15:03;0.50;;;0.20;;
4837;SDS011;2433;48.768;9.154;2023-08-06T11:17:32;0.40;;;0.20;;
4837;SDS011;2433;48.768;9.154;2023-08-06T11:20:02;1.10;;;0.20;;
4837;SDS011;2433;48.768;9.154;2023-08-06T11:22:29;0.40;;;0.20;;
4837;SDS011;2433;48.768;9.154;2023-08-06T11:24:55;0.40;;;0.20;;
4837;SDS011;2433;48.768;9.154;2023-08-06T11:27:21;0.60;;;0.30;;
4837;SDS011;2433;48.768;9.154;2023-08-06T11:29:47;0.67;;;0.20;;
4837;SDS011;2433;48.768;9.154;2023-08-06T11:32:13;0.60;;;0.30;;
4837;SDS011;2433;48.768;9.154;2023-08-06T11:34:39;0.50;;;0.33;;
4837;SDS011;2433;48.768;9.154;2023-08-06T11:37:05;0.70;;;0.30;;
4837;SDS011;2433;48.768;9.154;2023-08-06T11:39:35;0.40;;;0.20;;
4837;SDS011;2433;48.768;9.154;2023-08-06T11:42:05;0.70;;;0.40;;
4837;SDS011;2433;48.768;9.154;2023-08-06T11:44:32;0.60;;;0.37;;
4837;SDS011;2433;48.768;9.154;2023-08-06T11:47:00;1.00;;;0.50;;
4837;SDS011;2433;48.768;9.154;2023-08-06T11:52:15;0.70;;;0.40;;
4837;SDS011;2433;48.768;9.154;2023-08-06T11:54:46;0.60;;;0.40;;
4837;SDS011;2433;48.768;9.154;2023-08-06T11:57:29;0.60;;;0.33;;
4837;SDS011;2433;48.768;9.154;2023-08-06T12:02:42;0.70;;;0.60;;
4837;SDS011;2433;48.768;9.154;2023-08-06T12:05:12;0.70;;;0.43;;
4837;SDS011;2433;48.768;9.154;2023-08-06T12:07:45;0.97;;;0.70;;
4837;SDS011;2433;48.768;9.154;2023-08-06T12:10:14;1.10;;;0.43;;
4837;SDS011;2433;48.768;9.154;2023-08-06T12:12:40;0.50;;;0.30;;
4837;SDS011;2433;48.768;9.154;2023-08-06T12:15:06;0.40;;;0.30;;
4837;SDS011;2433;48.768;9.154;2023-08-06T12:17:33;0.60;;;0.43;;
4837;SDS011;2433;48.768;9.154;2023-08-06T12:19:58;0.70;;;0.40;;
4837;SDS011;2433;48.768;9.154;2023-08-06T12:22:24;0.93;;;0.40;;
4837;SDS011;2433;48.768;9.154;2023-08-06T12:24:50;0.60;;;0.50;;
4837;SDS011;2433;48.768;9.154;2023-08-06T12:27:16;0.50;;;0.40;;
4837;SDS011;2433;48.768;9.154;2023-08-06T12:29:42;0.80;;;0.60;;
4837;SDS011;2433;48.768;9.154;2023-08-06T12:32:12;1.10;;;0.40;;
4837;SDS011;2433;48.768;9.154;2023-08-06T12:34:41;0.90;;;0.50;;
4837;SDS011;2433;48.768;9.154;2023-08-06T12:37:08;1.37;;;0.40;;
4837;SDS011;2433;48.768;9.154;2023-08-06T12:39:34;1.43;;;1.00;;
4837;SDS011;2433;48.768;9.154;2023-08-06T12:42:01;0.50;;;0.40;;
4837;SDS011;2433;48.768;9.154;2023-08-06T12:44:27;0.50;;;0.40;;
4837;SDS011;2433;48.768;9.154;2023-08-06T12:46:53;0.73;;;0.50;;
4837;SDS011;2433;48.768;9.154;2023-08-06T12:49:19;0.57;;;0.40;;
4837;SDS011;2433;48.768;9.154;2023-08-06T12:51:49;0.70;;;0.40;;
4837;SDS011;2433;48.768;9.154;2023-08-06T12:54:18;0.87;;;0.60;;
4837;SDS011;2433;48.768;9.154;2023-08-06T12:56:45;0.70;;;0.50;;
4837;SDS011;2433;48.768;9.154;2023-08-06T12:59:13;0.80;;;0.40;;
4837;SDS011;2433;48.768;9.154;2023-08-06T13:01:39;0.50;;;0.27;;
4837;SDS011;2433;48.768;9.154;2023-08-06T13:04:05;0.70;;;0.40;;
4837;SDS011;2433;48.768;9.154;2023-08-06T13:06:31;0.60;;;0.40;;
4837;SDS011;2433;48.768;9.154;2023-08-06T13:09:08;0.73;;;0.40;;
4837;SDS011;2433;48.768;9.154;2023-08-06T13:11:37;0.40;;;0.30;;
4837;SDS011;2433;48.768;9.154;2023-08-06T13:14:13;3.13;;;0.43;;
4837;SDS011;2433;48.768;9.154;2023-08-06T13:16:40;0.73;;;0.40;;
4837;SDS011;2433;48.768;9.154;2023-08-06T13:19:07;0.80;;;0.40;;
4837;SDS011;2433;48.768;9.154;2023-08-06T13:21:34;0.40;;;0.30;;
4837;SDS011;2433;48.768;9.154;2023-08-06T13:24:20;0.57;;;0.30;;
4837;SDS011;2433;48.768;9.154;2023-08-06T13:26:46;0.73;;;0.47;;
4837;SDS011;2433;48.768;9.154;2023-08-06T13:29:12;0.60;;;0.43;;
4837;SDS011;2433;48.768;9.154;2023-08-06T13:31:37;1.20;;;0.50;;
4837;SDS011;2433;48.768;9.154;2023-08-06T13:34:03;1.30;;;0.60;;
4837;SDS011;2433;48.768;9.154;2023-08-06T13:36:30;1.20;;;1.07;;
4837;SDS011;2433;48.768;9.154;2023-08-06T13:38:56;1.47;;;0.30;;
4837;SDS011;2433;48.768;9.154;2023-08-06T13:41:21;1.00;;;0.80;;
4837;SDS011;2433;48.768;9.154;2023-08-06T13:43:48;0.50;;;0.47;;
4837;SDS011;2433;48.768;9.154;2023-08-06T13:46:13;0.60;;;0.50;;
4837;SDS011;2433;48.768;9.154;2023-08-06T13:48:44;0.50;;;0.30;;
4837;SDS011;2433;48.768;9.154;2023-08-06T13:51:10;0.40;;;0.30;;
4837;SDS011;2433;48.768;9.154;2023-08-06T13:53:37;0.40;;;0.20;;
4837;SDS011;2433;48.768;9.154;2023-08-06T13:56:03;1.17;;;0.40;;
4837;SDS011;2433;48.768;9.154;2023-08-06T13:58:30;1.00;;;0.40;;
4837;SDS011;2433;48.768;9.154;2023-08-06T14:00:56;0.70;;;0.40;;
4837;SDS011;2433;48.768;9.154;2023-08-06T14:03:23;0.73;;;0.50;;
4837;SDS011;2433;48.768;9.154;2023-08-06T14:05:49;2.33;;;1.17;;
4837;SDS011;2433;48.768;9.154;2023-08-06T14:08:15;0.70;;;0.50;;
4837;SDS011;2433;48.768;9.154;2023-08-06T14:10:43;0.50;;;0.30;;
4837;SDS011;2433;48.768;9.154;2023-08-06T14:13:09;1.50;;;0.30;;
4837;SDS011;2433;48.768;9.154;2023-08-06T14:15:35;0.60;;;0.40;;
4837;SDS011;2433;48.768;9.154;2023-08-06T14:18:01;0.60;;;0.30;;
4837;SDS011;2433;48.768;9.154;2023-08-06T14:20:28;0.60;;;0.30;;
4837;SDS011;2433;48.768;9.154;2023-08-06T14:22:53;0.70;;;0.37;;
4837;SDS011;2433;48.768;9.154;2023-08-06T14:25:19;0.40;;;0.30;;
4837;SDS011;2433;48.768;9.154;2023-08-06T14:27:45;0.50;;;0.30;;
4837;SDS011;2433;48.768;9.154;2023-08-06T14:30:11;0.40;;;0.30;;
4837;SDS011;2433;48.768;9.154;2023-08-06T14:32:37;0.60;;;0.43;;
4837;SDS011;2433;48.768;9.154;2023-08-06T14:35:02;1.57;;;0.40;;
4837;SDS011;2433;48.768;9.154;2023-08-06T14:37:28;0.50;;;0.30;;
4837;SDS011;2433;48.768;9.154;2023-08-06T14:39:54;0.90;;;0.20;;
4837;SDS011;2433;48.768;9.154;2023-08-06T14:42:19;0.43;;;0.20;;
4837;SDS011;2433;48.768;9.154;2023-08-06T14:44:45;0.50;;;0.37;;
4837;SDS011;2433;48.768;9.154;2023-08-06T14:47:11;0.60;;;0.40;;
4837;SDS011;2433;48.768;9.154;2023-08-06T14:49:37;0.50;;;0.40;;
4837;SDS011;2433;48.768;9.154;2023-08-06T14:52:03;0.50;;;0.40;;
4837;SDS011;2433;48.768;9.154;2023-08-06T14:54:29;0.70;;;0.40;;
4837;SDS011;2433;48.768;9.154;2023-08-06T14:56:55;0.40;;;0.30;;
4837;SDS011;2433;48.768;9.154;2023-08-06T14:59:21;0.50;;;0.30;;
4837;SDS011;2433;48.768;9.154;2023-08-06T15:01:47;0.53;;;0.40;;
4837;SDS011;2433;48.768;9.154;2023-08-06T15:04:12;0.50;;;0.40;;
4837;SDS011;2433;48.768;9.154;2023-08-06T15:06:38;0.60;;;0.40;;
4837;SDS011;2433;48.768;9.154;2023-08-06T15:09:03;1.10;;;0.30;;
4837;SDS011;2433;48.768;9.154;2023-08-06T15:11:29;2.00;;;0.30;;
4837;SDS011;2433;48.768;9.154;2023-08-06T15:13:55;0.77;;;0.77;;
4837;SDS011;2433;48.768;9.154;2023-08-06T15:16:20;0.40;;;0.27;;
4837;SDS011;2433;48.768;9.154;2023-08-06T15:18:46;0.50;;;0.30;;
4837;SDS011;2433;48.768;9.154;2023-08-06T15:21:12;0.40;;;0.30;;
4837;SDS011;2433;48.768;9.154;2023-08-06T15:23:37;0.80;;;0.30;;
4837;SDS011;2433;48.768;9.154;2023-08-06T15:26:03;0.53;;;0.43;;
4837;SDS011;2433;48.768;9.154;2023-08-06T15:28:28;0.50;;;0.37;;